Terminal Aerodrome Forecast
Issued by NWS

Home | Current Version | Previous Version | Text Only | Print | Product List | Glossary On
Versions: 1 2 3 4 5 6 7 8 9 10 11 12 13 14 15 16 17 18 19 20 21 22
231
FTUS45 KFGZ 280205 AAA
TAFPRC
TAF AMD
KPRC 280205Z 2802/2824 19009G13KT 5SM -RA BR OVC025
      TEMPO 2802/2806 2SM RA BR OVC015
     FM281800 26011KT P6SM OVC025
      TEMPO 2818/2822 -SHRA OVC015=

USA.gov is the U.S. government's official web portal to all federal, state and local government web resources and services.